sensor_id;sensor_type;location;lat;lon;timestamp;temperature;humidity
21348;DHT22;66030;53.582;9.746;2024-02-28T00:00:32;19.80;55.10
21348;DHT22;66030;53.582;9.746;2024-02-28T00:03:00;19.80;55.10
21348;DHT22;66030;53.582;9.746;2024-02-28T00:05:28;19.70;55.10
21348;DHT22;66030;53.582;9.746;2024-02-28T00:07:56;19.70;55.10
21348;DHT22;66030;53.582;9.746;2024-02-28T00:10:24;19.60;55.20
21348;DHT22;66030;53.582;9.746;2024-02-28T00:12:51;19.70;55.20
21348;DHT22;66030;53.582;9.746;2024-02-28T00:15:19;19.60;55.20
21348;DHT22;66030;53.582;9.746;2024-02-28T00:17:51;19.60;55.20
21348;DHT22;66030;53.582;9.746;2024-02-28T00:20:20;19.60;55.20
21348;DHT22;66030;53.582;9.746;2024-02-28T00:22:47;19.60;55.20
21348;DHT22;66030;53.582;9.746;2024-02-28T00:25:15;19.50;55.20
21348;DHT22;66030;53.582;9.746;2024-02-28T00:27:43;19.50;55.30
21348;DHT22;66030;53.582;9.746;2024-02-28T00:30:13;19.50;55.20
21348;DHT22;66030;53.582;9.746;2024-02-28T00:32:41;19.50;55.20
21348;DHT22;66030;53.582;9.746;2024-02-28T00:35:10;19.50;55.30
21348;DHT22;66030;53.582;9.746;2024-02-28T00:37:38;19.50;55.30
21348;DHT22;66030;53.582;9.746;2024-02-28T00:40:08;19.50;55.40
21348;DHT22;66030;53.582;9.746;2024-02-28T00:42:36;19.40;55.30
21348;DHT22;66030;53.582;9.746;2024-02-28T00:45:04;19.40;55.40
21348;DHT22;66030;53.582;9.746;2024-02-28T00:47:32;19.40;55.40
21348;DHT22;66030;53.582;9.746;2024-02-28T00:50:00;19.40;55.40
21348;DHT22;66030;53.582;9.746;2024-02-28T00:52:30;19.40;55.40
21348;DHT22;66030;53.582;9.746;2024-02-28T00:54:59;19.30;55.40
21348;DHT22;66030;53.582;9.746;2024-02-28T00:57:27;19.30;55.40
21348;DHT22;66030;53.582;9.746;2024-02-28T00:59:55;19.30;55.40
21348;DHT22;66030;53.582;9.746;2024-02-28T01:02:22;19.30;55.50
21348;DHT22;66030;53.582;9.746;2024-02-28T01:04:50;19.30;55.50
21348;DHT22;66030;53.582;9.746;2024-02-28T01:07:18;19.30;55.50
21348;DHT22;66030;53.582;9.746;2024-02-28T01:09:47;19.30;55.40
21348;DHT22;66030;53.582;9.746;2024-02-28T01:12:15;19.30;55.40
21348;DHT22;66030;53.582;9.746;2024-02-28T01:14:43;19.30;55.40
21348;DHT22;66030;53.582;9.746;2024-02-28T01:17:11;19.20;55.50
21348;DHT22;66030;53.582;9.746;2024-02-28T01:19:39;19.20;55.50
21348;DHT22;66030;53.582;9.746;2024-02-28T01:22:07;19.20;55.60
21348;DHT22;66030;53.582;9.746;2024-02-28T01:24:35;19.20;55.50
21348;DHT22;66030;53.582;9.746;2024-02-28T01:27:05;19.20;55.50
21348;DHT22;66030;53.582;9.746;2024-02-28T01:29:33;19.20;55.60
21348;DHT22;66030;53.582;9.746;2024-02-28T01:32:00;19.20;55.60
21348;DHT22;66030;53.582;9.746;2024-02-28T01:34:29;19.20;55.60
21348;DHT22;66030;53.582;9.746;2024-02-28T01:36:57;19.20;55.60
21348;DHT22;66030;53.582;9.746;2024-02-28T01:39:25;19.20;55.60
21348;DHT22;66030;53.582;9.746;2024-02-28T01:41:53;19.20;55.70
21348;DHT22;66030;53.582;9.746;2024-02-28T01:44:22;19.10;55.70
21348;DHT22;66030;53.582;9.746;2024-02-28T01:46:50;19.10;55.70
21348;DHT22;66030;53.582;9.746;2024-02-28T01:49:21;19.10;55.70
21348;DHT22;66030;53.582;9.746;2024-02-28T01:51:49;19.10;55.70
21348;DHT22;66030;53.582;9.746;2024-02-28T01:54:18;19.00;55.70
21348;DHT22;66030;53.582;9.746;2024-02-28T01:56:46;19.00;55.80
21348;DHT22;66030;53.582;9.746;2024-02-28T01:59:15;19.00;55.90
21348;DHT22;66030;53.582;9.746;2024-02-28T02:01:45;19.00;55.90
21348;DHT22;66030;53.582;9.746;2024-02-28T02:04:13;19.00;55.90
21348;DHT22;66030;53.582;9.746;2024-02-28T02:06:43;19.00;55.90
21348;DHT22;66030;53.582;9.746;2024-02-28T02:09:11;19.00;55.90
21348;DHT22;66030;53.582;9.746;2024-02-28T02:11:39;19.00;55.90
21348;DHT22;66030;53.582;9.746;2024-02-28T02:14:07;19.00;55.90
21348;DHT22;66030;53.582;9.746;2024-02-28T02:16:35;18.90;55.80
21348;DHT22;66030;53.582;9.746;2024-02-28T02:19:04;19.00;55.90
21348;DHT22;66030;53.582;9.746;2024-02-28T02:21:34;18.90;56.00
21348;DHT22;66030;53.582;9.746;2024-02-28T02:24:04;18.90;55.90
21348;DHT22;66030;53.582;9.746;2024-02-28T02:26:31;18.90;56.00
21348;DHT22;66030;53.582;9.746;2024-02-28T02:28:59;18.90;56.00
21348;DHT22;66030;53.582;9.746;2024-02-28T02:31:27;18.90;55.90
21348;DHT22;66030;53.582;9.746;2024-02-28T02:33:55;18.90;56.00
21348;DHT22;66030;53.582;9.746;2024-02-28T02:36:23;18.80;56.10
21348;DHT22;66030;53.582;9.746;2024-02-28T02:38:50;18.80;56.10
21348;DHT22;66030;53.582;9.746;2024-02-28T02:41:19;18.80;56.00
21348;DHT22;66030;53.582;9.746;2024-02-28T02:43:46;18.80;56.00
21348;DHT22;66030;53.582;9.746;2024-02-28T02:46:14;18.80;56.00
21348;DHT22;66030;53.582;9.746;2024-02-28T02:48:42;18.80;56.10
21348;DHT22;66030;53.582;9.746;2024-02-28T02:51:09;18.80;56.10
21348;DHT22;66030;53.582;9.746;2024-02-28T02:53:37;18.80;56.10
21348;DHT22;66030;53.582;9.746;2024-02-28T02:56:06;18.80;56.10
21348;DHT22;66030;53.582;9.746;2024-02-28T02:58:35;18.80;56.10
21348;DHT22;66030;53.582;9.746;2024-02-28T03:01:03;18.80;56.00
21348;DHT22;66030;53.582;9.746;2024-02-28T03:03:31;18.80;56.10
21348;DHT22;66030;53.582;9.746;2024-02-28T03:05:59;18.80;56.10
21348;DHT22;66030;53.582;9.746;2024-02-28T03:08:26;18.70;56.10
21348;DHT22;66030;53.582;9.746;2024-02-28T03:10:54;18.70;56.20
21348;DHT22;66030;53.582;9.746;2024-02-28T03:13:22;18.70;56.20
21348;DHT22;66030;53.582;9.746;2024-02-28T03:15:51;18.70;56.20
21348;DHT22;66030;53.582;9.746;2024-02-28T03:18:19;18.70;56.30
21348;DHT22;66030;53.582;9.746;2024-02-28T03:20:47;18.70;56.20
21348;DHT22;66030;53.582;9.746;2024-02-28T03:23:15;18.70;56.20
21348;DHT22;66030;53.582;9.746;2024-02-28T03:25:43;18.70;56.20
21348;DHT22;66030;53.582;9.746;2024-02-28T03:28:10;18.70;56.20
21348;DHT22;66030;53.582;9.746;2024-02-28T03:30:38;18.70;56.20
21348;DHT22;66030;53.582;9.746;2024-02-28T03:33:07;18.70;56.30
21348;DHT22;66030;53.582;9.746;2024-02-28T03:35:36;18.70;56.20
21348;DHT22;66030;53.582;9.746;2024-02-28T03:38:03;18.60;56.30
21348;DHT22;66030;53.582;9.746;2024-02-28T03:40:32;18.60;56.30
21348;DHT22;66030;53.582;9.746;2024-02-28T03:43:00;18.60;56.40
21348;DHT22;66030;53.582;9.746;2024-02-28T03:45:28;18.60;56.40
21348;DHT22;66030;53.582;9.746;2024-02-28T03:47:56;18.60;56.40
21348;DHT22;66030;53.582;9.746;2024-02-28T03:50:25;18.60;56.50
21348;DHT22;66030;53.582;9.746;2024-02-28T03:52:53;18.60;56.40
21348;DHT22;66030;53.582;9.746;2024-02-28T03:55:21;18.60;56.40
21348;DHT22;66030;53.582;9.746;2024-02-28T03:57:49;18.60;56.40
21348;DHT22;66030;53.582;9.746;2024-02-28T04:00:19;18.50;56.40
21348;DHT22;66030;53.582;9.746;2024-02-28T04:02:47;18.60;56.40
21348;DHT22;66030;53.582;9.746;2024-02-28T04:05:15;18.60;56.40
21348;DHT22;66030;53.582;9.746;2024-02-28T04:07:45;18.60;56.50
21348;DHT22;66030;53.582;9.746;2024-02-28T04:10:13;18.50;56.50
21348;DHT22;66030;53.582;9.746;2024-02-28T04:12:42;18.50;56.50
21348;DHT22;66030;53.582;9.746;2024-02-28T04:15:11;18.50;56.50
21348;DHT22;66030;53.582;9.746;2024-02-28T04:17:41;18.50;56.50
21348;DHT22;66030;53.582;9.746;2024-02-28T04:20:10;18.50;56.60
21348;DHT22;66030;53.582;9.746;2024-02-28T04:22:38;18.50;56.50
21348;DHT22;66030;53.582;9.746;2024-02-28T04:25:08;18.50;56.60
21348;DHT22;66030;53.582;9.746;2024-02-28T04:27:36;18.50;56.60
21348;DHT22;66030;53.582;9.746;2024-02-28T04:30:05;18.50;56.50
21348;DHT22;66030;53.582;9.746;2024-02-28T04:32:33;18.50;56.50
21348;DHT22;66030;53.582;9.746;2024-02-28T04:35:02;18.50;56.60
21348;DHT22;66030;53.582;9.746;2024-02-28T04:37:30;18.50;56.50
21348;DHT22;66030;53.582;9.746;2024-02-28T04:39:58;18.50;56.60
21348;DHT22;66030;53.582;9.746;2024-02-28T04:42:27;18.50;56.60
21348;DHT22;66030;53.582;9.746;2024-02-28T04:44:55;18.50;56.70
21348;DHT22;66030;53.582;9.746;2024-02-28T04:47:23;18.50;56.60
21348;DHT22;66030;53.582;9.746;2024-02-28T04:50:02;18.50;56.70
21348;DHT22;66030;53.582;9.746;2024-02-28T04:52:31;18.60;56.50
21348;DHT22;66030;53.582;9.746;2024-02-28T04:54:59;18.70;56.30
21348;DHT22;66030;53.582;9.746;2024-02-28T04:57:28;18.80;56.10
21348;DHT22;66030;53.582;9.746;2024-02-28T04:59:56;18.90;56.00
21348;DHT22;66030;53.582;9.746;2024-02-28T05:02:24;19.00;55.80
21348;DHT22;66030;53.582;9.746;2024-02-28T05:04:52;19.10;55.60
21348;DHT22;66030;53.582;9.746;2024-02-28T05:07:20;19.10;55.50
21348;DHT22;66030;53.582;9.746;2024-02-28T05:09:49;19.20;55.40
21348;DHT22;66030;53.582;9.746;2024-02-28T05:12:16;19.30;55.30
21348;DHT22;66030;53.582;9.746;2024-02-28T05:14:46;19.30;55.20
21348;DHT22;66030;53.582;9.746;2024-02-28T05:17:14;19.30;55.00
21348;DHT22;66030;53.582;9.746;2024-02-28T05:19:43;19.40;54.90
21348;DHT22;66030;53.582;9.746;2024-02-28T05:22:11;19.40;54.90
21348;DHT22;66030;53.582;9.746;2024-02-28T05:24:39;19.40;54.80
21348;DHT22;66030;53.582;9.746;2024-02-28T05:27:10;19.50;54.70
21348;DHT22;66030;53.582;9.746;2024-02-28T05:29:38;19.50;54.60
21348;DHT22;66030;53.582;9.746;2024-02-28T05:32:08;19.50;54.60
21348;DHT22;66030;53.582;9.746;2024-02-28T05:34:36;19.60;54.50
21348;DHT22;66030;53.582;9.746;2024-02-28T05:37:04;19.60;54.50
21348;DHT22;66030;53.582;9.746;2024-02-28T05:39:32;19.60;54.50
21348;DHT22;66030;53.582;9.746;2024-02-28T05:42:00;19.60;54.60
21348;DHT22;66030;53.582;9.746;2024-02-28T05:44:28;19.60;54.50
21348;DHT22;66030;53.582;9.746;2024-02-28T05:46:56;19.60;54.40
21348;DHT22;66030;53.582;9.746;2024-02-28T05:49:26;19.60;54.40
21348;DHT22;66030;53.582;9.746;2024-02-28T05:51:54;19.70;54.30
21348;DHT22;66030;53.582;9.746;2024-02-28T05:54:22;19.70;54.30
21348;DHT22;66030;53.582;9.746;2024-02-28T05:56:52;19.70;54.30
21348;DHT22;66030;53.582;9.746;2024-02-28T05:59:20;19.70;54.30
21348;DHT22;66030;53.582;9.746;2024-02-28T06:01:48;19.70;54.30
21348;DHT22;66030;53.582;9.746;2024-02-28T06:04:16;19.70;54.50
21348;DHT22;66030;53.582;9.746;2024-02-28T06:06:45;19.60;54.60
21348;DHT22;66030;53.582;9.746;2024-02-28T06:09:13;19.60;54.70
21348;DHT22;66030;53.582;9.746;2024-02-28T06:11:41;19.60;54.80
21348;DHT22;66030;53.582;9.746;2024-02-28T06:14:08;19.60;54.90
21348;DHT22;66030;53.582;9.746;2024-02-28T06:16:50;19.60;55.00
21348;DHT22;66030;53.582;9.746;2024-02-28T06:19:18;19.60;55.20
21348;DHT22;66030;53.582;9.746;2024-02-28T06:21:46;19.60;55.30
21348;DHT22;66030;53.582;9.746;2024-02-28T06:24:14;19.60;55.30
21348;DHT22;66030;53.582;9.746;2024-02-28T06:26:42;19.50;55.30
21348;DHT22;66030;53.582;9.746;2024-02-28T06:29:13;19.50;55.00
21348;DHT22;66030;53.582;9.746;2024-02-28T06:31:41;19.50;55.10
21348;DHT22;66030;53.582;9.746;2024-02-28T06:34:11;19.50;55.20
21348;DHT22;66030;53.582;9.746;2024-02-28T06:36:43;19.20;53.50
21348;DHT22;66030;53.582;9.746;2024-02-28T06:39:11;19.00;54.10
21348;DHT22;66030;53.582;9.746;2024-02-28T06:41:39;19.00;55.00
21348;DHT22;66030;53.582;9.746;2024-02-28T06:44:07;19.10;55.30
21348;DHT22;66030;53.582;9.746;2024-02-28T06:46:35;19.20;55.40
21348;DHT22;66030;53.582;9.746;2024-02-28T06:49:03;19.30;55.40
21348;DHT22;66030;53.582;9.746;2024-02-28T06:51:32;19.40;55.30
21348;DHT22;66030;53.582;9.746;2024-02-28T06:54:00;19.30;55.10
21348;DHT22;66030;53.582;9.746;2024-02-28T06:56:28;19.30;55.20
21348;DHT22;66030;53.582;9.746;2024-02-28T06:58:56;19.40;55.20
21348;DHT22;66030;53.582;9.746;2024-02-28T07:01:24;19.40;55.10
21348;DHT22;66030;53.582;9.746;2024-02-28T07:03:52;19.50;55.00
21348;DHT22;66030;53.582;9.746;2024-02-28T07:06:20;19.50;54.90
21348;DHT22;66030;53.582;9.746;2024-02-28T07:08:49;19.50;54.90
21348;DHT22;66030;53.582;9.746;2024-02-28T07:11:17;19.50;54.90
21348;DHT22;66030;53.582;9.746;2024-02-28T07:13:45;19.50;55.00
21348;DHT22;66030;53.582;9.746;2024-02-28T07:16:13;19.50;54.80
21348;DHT22;66030;53.582;9.746;2024-02-28T07:18:41;19.50;54.70
21348;DHT22;66030;53.582;9.746;2024-02-28T07:21:09;19.60;54.50
21348;DHT22;66030;53.582;9.746;2024-02-28T07:23:39;19.60;54.30
21348;DHT22;66030;53.582;9.746;2024-02-28T07:26:14;19.50;54.30
21348;DHT22;66030;53.582;9.746;2024-02-28T07:28:52;19.50;54.20
21348;DHT22;66030;53.582;9.746;2024-02-28T07:31:20;19.50;54.10
21348;DHT22;66030;53.582;9.746;2024-02-28T07:33:48;19.50;54.10
21348;DHT22;66030;53.582;9.746;2024-02-28T07:36:16;19.50;54.00
21348;DHT22;66030;53.582;9.746;2024-02-28T07:38:44;19.50;54.00
21348;DHT22;66030;53.582;9.746;2024-02-28T07:41:14;19.50;53.90
21348;DHT22;66030;53.582;9.746;2024-02-28T07:43:42;19.50;53.90
21348;DHT22;66030;53.582;9.746;2024-02-28T07:46:10;19.60;53.80
21348;DHT22;66030;53.582;9.746;2024-02-28T07:48:39;19.50;53.70
21348;DHT22;66030;53.582;9.746;2024-02-28T07:51:07;19.50;53.70
21348;DHT22;66030;53.582;9.746;2024-02-28T07:53:36;19.50;53.60
21348;DHT22;66030;53.582;9.746;2024-02-28T07:56:04;19.60;53.60
21348;DHT22;66030;53.582;9.746;2024-02-28T07:58:33;19.60;53.60
21348;DHT22;66030;53.582;9.746;2024-02-28T08:01:01;19.60;53.50
21348;DHT22;66030;53.582;9.746;2024-02-28T08:03:29;19.60;53.50
21348;DHT22;66030;53.582;9.746;2024-02-28T08:05:57;19.60;53.40
21348;DHT22;66030;53.582;9.746;2024-02-28T08:08:25;19.60;53.40
21348;DHT22;66030;53.582;9.746;2024-02-28T08:10:53;19.60;53.40
21348;DHT22;66030;53.582;9.746;2024-02-28T08:13:21;19.70;53.30
21348;DHT22;66030;53.582;9.746;2024-02-28T08:15:51;19.60;53.20
21348;DHT22;66030;53.582;9.746;2024-02-28T08:18:21;19.60;53.30
21348;DHT22;66030;53.582;9.746;2024-02-28T08:20:49;19.70;53.30
21348;DHT22;66030;53.582;9.746;2024-02-28T08:23:19;19.70;53.30
21348;DHT22;66030;53.582;9.746;2024-02-28T08:25:47;19.70;53.20
21348;DHT22;66030;53.582;9.746;2024-02-28T08:28:15;19.70;53.20
21348;DHT22;66030;53.582;9.746;2024-02-28T08:30:43;19.70;53.10
21348;DHT22;66030;53.582;9.746;2024-02-28T08:33:12;19.70;53.00
21348;DHT22;66030;53.582;9.746;2024-02-28T08:35:42;19.80;52.90
21348;DHT22;66030;53.582;9.746;2024-02-28T08:38:10;19.80;53.00
21348;DHT22;66030;53.582;9.746;2024-02-28T08:40:38;19.80;52.90
21348;DHT22;66030;53.582;9.746;2024-02-28T08:43:06;19.80;52.90
21348;DHT22;66030;53.582;9.746;2024-02-28T08:45:34;19.80;52.90
21348;DHT22;66030;53.582;9.746;2024-02-28T08:48:05;19.80;52.90
21348;DHT22;66030;53.582;9.746;2024-02-28T08:50:34;19.80;52.80
21348;DHT22;66030;53.582;9.746;2024-02-28T08:53:02;19.80;52.80
21348;DHT22;66030;53.582;9.746;2024-02-28T08:55:30;19.80;52.80
21348;DHT22;66030;53.582;9.746;2024-02-28T08:58:00;19.80;52.70
21348;DHT22;66030;53.582;9.746;2024-02-28T09:00:28;19.80;52.70
21348;DHT22;66030;53.582;9.746;2024-02-28T09:02:57;19.90;52.80
21348;DHT22;66030;53.582;9.746;2024-02-28T09:05:25;19.90;52.70
21348;DHT22;66030;53.582;9.746;2024-02-28T09:07:54;19.90;52.70
21348;DHT22;66030;53.582;9.746;2024-02-28T09:10:24;19.90;52.70
21348;DHT22;66030;53.582;9.746;2024-02-28T09:12:52;19.80;52.80
21348;DHT22;66030;53.582;9.746;2024-02-28T09:15:20;19.80;52.80
21348;DHT22;66030;53.582;9.746;2024-02-28T09:17:48;19.80;52.80
21348;DHT22;66030;53.582;9.746;2024-02-28T09:20:16;19.70;52.60
21348;DHT22;66030;53.582;9.746;2024-02-28T09:22:44;19.70;52.80
21348;DHT22;66030;53.582;9.746;2024-02-28T09:25:14;19.70;52.90
21348;DHT22;66030;53.582;9.746;2024-02-28T09:27:42;19.70;52.90
21348;DHT22;66030;53.582;9.746;2024-02-28T09:30:10;19.70;52.80
21348;DHT22;66030;53.582;9.746;2024-02-28T09:32:38;19.80;52.80
21348;DHT22;66030;53.582;9.746;2024-02-28T09:35:06;19.80;52.80
21348;DHT22;66030;53.582;9.746;2024-02-28T09:37:36;19.80;52.80
21348;DHT22;66030;53.582;9.746;2024-02-28T09:40:08;19.80;52.70
21348;DHT22;66030;53.582;9.746;2024-02-28T09:42:38;19.90;52.70
21348;DHT22;66030;53.582;9.746;2024-02-28T09:45:07;19.90;52.70
21348;DHT22;66030;53.582;9.746;2024-02-28T09:47:35;19.90;52.60
21348;DHT22;66030;53.582;9.746;2024-02-28T09:50:04;20.00;52.50
21348;DHT22;66030;53.582;9.746;2024-02-28T09:52:32;20.00;52.50
21348;DHT22;66030;53.582;9.746;2024-02-28T09:55:02;20.00;52.50
21348;DHT22;66030;53.582;9.746;2024-02-28T09:57:30;20.10;52.40
21348;DHT22;66030;53.582;9.746;2024-02-28T10:00:00;20.10;52.50
21348;DHT22;66030;53.582;9.746;2024-02-28T10:02:29;20.10;52.40
21348;DHT22;66030;53.582;9.746;2024-02-28T10:04:58;20.20;52.30
21348;DHT22;66030;53.582;9.746;2024-02-28T10:07:27;20.20;52.20
21348;DHT22;66030;53.582;9.746;2024-02-28T10:09:55;20.30;52.00
21348;DHT22;66030;53.582;9.746;2024-02-28T10:12:23;20.30;52.00
21348;DHT22;66030;53.582;9.746;2024-02-28T10:14:52;20.30;51.90
21348;DHT22;66030;53.582;9.746;2024-02-28T10:17:21;20.30;52.00
21348;DHT22;66030;53.582;9.746;2024-02-28T10:19:51;20.20;52.00
21348;DHT22;66030;53.582;9.746;2024-02-28T10:22:19;20.20;52.10
21348;DHT22;66030;53.582;9.746;2024-02-28T10:24:48;20.20;52.10
21348;DHT22;66030;53.582;9.746;2024-02-28T10:27:16;20.20;52.20
21348;DHT22;66030;53.582;9.746;2024-02-28T10:29:45;20.20;52.20
21348;DHT22;66030;53.582;9.746;2024-02-28T10:32:14;20.10;52.10
21348;DHT22;66030;53.582;9.746;2024-02-28T10:34:43;20.20;52.20
21348;DHT22;66030;53.582;9.746;2024-02-28T10:37:12;20.20;52.20
21348;DHT22;66030;53.582;9.746;2024-02-28T10:39:41;20.20;52.20
21348;DHT22;66030;53.582;9.746;2024-02-28T10:42:11;20.30;52.00
21348;DHT22;66030;53.582;9.746;2024-02-28T10:44:41;20.30;52.00
21348;DHT22;66030;53.582;9.746;2024-02-28T10:47:09;20.30;52.00
21348;DHT22;66030;53.582;9.746;2024-02-28T10:49:39;20.30;52.00
21348;DHT22;66030;53.582;9.746;2024-02-28T10:52:12;20.20;52.00
21348;DHT22;66030;53.582;9.746;2024-02-28T10:54:41;20.20;52.10
21348;DHT22;66030;53.582;9.746;2024-02-28T10:57:12;20.10;52.10
21348;DHT22;66030;53.582;9.746;2024-02-28T10:59:40;20.10;52.10
21348;DHT22;66030;53.582;9.746;2024-02-28T11:02:10;20.10;52.20
21348;DHT22;66030;53.582;9.746;2024-02-28T11:04:39;20.10;52.20
21348;DHT22;66030;53.582;9.746;2024-02-28T11:07:07;20.10;52.30
21348;DHT22;66030;53.582;9.746;2024-02-28T11:09:36;20.00;52.30
21348;DHT22;66030;53.582;9.746;2024-02-28T11:12:05;20.00;52.40
21348;DHT22;66030;53.582;9.746;2024-02-28T11:14:33;20.00;52.40
21348;DHT22;66030;53.582;9.746;2024-02-28T11:17:04;20.00;52.30
21348;DHT22;66030;53.582;9.746;2024-02-28T11:19:33;20.00;52.40
21348;DHT22;66030;53.582;9.746;2024-02-28T11:22:04;20.00;52.40
21348;DHT22;66030;53.582;9.746;2024-02-28T11:24:33;20.00;52.40
21348;DHT22;66030;53.582;9.746;2024-02-28T11:27:05;20.00;52.40
21348;DHT22;66030;53.582;9.746;2024-02-28T11:29:33;20.00;52.40
21348;DHT22;66030;53.582;9.746;2024-02-28T11:32:01;20.00;52.50
21348;DHT22;66030;53.582;9.746;2024-02-28T11:34:29;19.90;52.50
21348;DHT22;66030;53.582;9.746;2024-02-28T11:36:57;19.90;52.50
21348;DHT22;66030;53.582;9.746;2024-02-28T11:39:26;19.90;52.50
21348;DHT22;66030;53.582;9.746;2024-02-28T11:42:13;19.90;52.50
21348;DHT22;66030;53.582;9.746;2024-02-28T11:44:42;19.90;52.40
21348;DHT22;66030;53.582;9.746;2024-02-28T11:47:10;19.90;52.50
21348;DHT22;66030;53.582;9.746;2024-02-28T11:49:38;19.90;52.50
21348;DHT22;66030;53.582;9.746;2024-02-28T11:52:06;19.90;52.50
21348;DHT22;66030;53.582;9.746;2024-02-28T11:54:34;19.90;52.50
21348;DHT22;66030;53.582;9.746;2024-02-28T11:57:03;19.90;52.50
21348;DHT22;66030;53.582;9.746;2024-02-28T11:59:32;19.90;52.60
21348;DHT22;66030;53.582;9.746;2024-02-28T12:02:00;19.90;52.60
21348;DHT22;66030;53.582;9.746;2024-02-28T12:04:28;19.90;52.50
21348;DHT22;66030;53.582;9.746;2024-02-28T12:06:57;19.90;52.50
21348;DHT22;66030;53.582;9.746;2024-02-28T12:09:25;19.90;52.60
21348;DHT22;66030;53.582;9.746;2024-02-28T12:12:07;19.90;52.60
21348;DHT22;66030;53.582;9.746;2024-02-28T12:14:37;19.90;52.60
21348;DHT22;66030;53.582;9.746;2024-02-28T12:17:05;19.90;52.60
21348;DHT22;66030;53.582;9.746;2024-02-28T12:19:34;19.80;52.60
21348;DHT22;66030;53.582;9.746;2024-02-28T12:22:03;19.90;52.60
21348;DHT22;66030;53.582;9.746;2024-02-28T12:24:31;19.80;52.60
21348;DHT22;66030;53.582;9.746;2024-02-28T12:26:59;19.80;52.60
21348;DHT22;66030;53.582;9.746;2024-02-28T12:29:27;19.80;52.70
21348;DHT22;66030;53.582;9.746;2024-02-28T12:31:56;19.80;52.70
21348;DHT22;66030;53.582;9.746;2024-02-28T12:34:24;19.80;52.70
21348;DHT22;66030;53.582;9.746;2024-02-28T12:36:53;19.80;52.70
21348;DHT22;66030;53.582;9.746;2024-02-28T12:39:21;19.80;52.70
21348;DHT22;66030;53.582;9.746;2024-02-28T12:41:49;19.80;52.60
21348;DHT22;66030;53.582;9.746;2024-02-28T12:44:17;19.80;52.60
21348;DHT22;66030;53.582;9.746;2024-02-28T12:46:45;19.80;52.60
21348;DHT22;66030;53.582;9.746;2024-02-28T12:49:14;19.80;52.60
21348;DHT22;66030;53.582;9.746;2024-02-28T12:51:43;19.80;52.60
21348;DHT22;66030;53.582;9.746;2024-02-28T12:54:12;19.80;52.60
21348;DHT22;66030;53.582;9.746;2024-02-28T12:56:41;19.90;52.60
21348;DHT22;66030;53.582;9.746;2024-02-28T12:59:10;19.80;52.60
21348;DHT22;66030;53.582;9.746;2024-02-28T13:01:39;19.80;52.60
21348;DHT22;66030;53.582;9.746;2024-02-28T13:04:07;19.80;52.70
21348;DHT22;66030;53.582;9.746;2024-02-28T13:06:37;19.80;52.60
21348;DHT22;66030;53.582;9.746;2024-02-28T13:09:06;19.80;52.70
21348;DHT22;66030;53.582;9.746;2024-02-28T13:11:39;19.80;52.70
21348;DHT22;66030;53.582;9.746;2024-02-28T13:14:07;19.70;52.70
21348;DHT22;66030;53.582;9.746;2024-02-28T13:16:36;19.80;52.90
21348;DHT22;66030;53.582;9.746;2024-02-28T13:19:04;19.80;53.00
21348;DHT22;66030;53.582;9.746;2024-02-28T13:21:32;19.80;53.10
21348;DHT22;66030;53.582;9.746;2024-02-28T13:24:02;19.80;53.20
21348;DHT22;66030;53.582;9.746;2024-02-28T13:26:31;19.80;53.20
21348;DHT22;66030;53.582;9.746;2024-02-28T13:28:58;19.80;53.20
21348;DHT22;66030;53.582;9.746;2024-02-28T13:31:26;19.80;53.20
21348;DHT22;66030;53.582;9.746;2024-02-28T13:33:55;19.80;53.30
21348;DHT22;66030;53.582;9.746;2024-02-28T13:36:22;19.90;53.30
21348;DHT22;66030;53.582;9.746;2024-02-28T13:38:51;19.90;53.30
21348;DHT22;66030;53.582;9.746;2024-02-28T13:41:20;19.90;53.20
21348;DHT22;66030;53.582;9.746;2024-02-28T13:43:48;19.90;53.20
21348;DHT22;66030;53.582;9.746;2024-02-28T13:46:16;19.90;53.20
21348;DHT22;66030;53.582;9.746;2024-02-28T13:48:46;19.90;53.20
21348;DHT22;66030;53.582;9.746;2024-02-28T13:51:14;19.90;53.20
21348;DHT22;66030;53.582;9.746;2024-02-28T13:53:43;19.90;53.20
21348;DHT22;66030;53.582;9.746;2024-02-28T13:56:11;19.90;53.20
21348;DHT22;66030;53.582;9.746;2024-02-28T13:58:40;19.90;53.20
21348;DHT22;66030;53.582;9.746;2024-02-28T14:01:19;19.90;53.20
21348;DHT22;66030;53.582;9.746;2024-02-28T14:03:47;19.90;53.30
21348;DHT22;66030;53.582;9.746;2024-02-28T14:06:15;19.90;53.20
21348;DHT22;66030;53.582;9.746;2024-02-28T14:08:43;19.90;53.20
21348;DHT22;66030;53.582;9.746;2024-02-28T14:11:11;19.90;53.20
21348;DHT22;66030;53.582;9.746;2024-02-28T14:13:39;19.90;53.20
21348;DHT22;66030;53.582;9.746;2024-02-28T14:16:08;19.80;53.40
21348;DHT22;66030;53.582;9.746;2024-02-28T14:18:36;19.80;53.40
21348;DHT22;66030;53.582;9.746;2024-02-28T14:21:05;19.90;53.50
21348;DHT22;66030;53.582;9.746;2024-02-28T14:23:34;19.90;53.50
21348;DHT22;66030;53.582;9.746;2024-02-28T14:26:02;19.90;53.50
21348;DHT22;66030;53.582;9.746;2024-02-28T14:28:30;19.90;53.50
21348;DHT22;66030;53.582;9.746;2024-02-28T14:31:00;19.90;53.60
21348;DHT22;66030;53.582;9.746;2024-02-28T14:33:28;19.90;53.60
21348;DHT22;66030;53.582;9.746;2024-02-28T14:35:58;19.90;53.70
21348;DHT22;66030;53.582;9.746;2024-02-28T14:38:27;19.90;53.80
21348;DHT22;66030;53.582;9.746;2024-02-28T14:40:55;19.90;53.80
21348;DHT22;66030;53.582;9.746;2024-02-28T14:43:24;19.90;53.80
21348;DHT22;66030;53.582;9.746;2024-02-28T14:45:53;19.90;53.80
21348;DHT22;66030;53.582;9.746;2024-02-28T14:48:23;19.90;53.90
21348;DHT22;66030;53.582;9.746;2024-02-28T14:50:51;19.90;53.90
21348;DHT22;66030;53.582;9.746;2024-02-28T14:53:20;19.80;53.90
21348;DHT22;66030;53.582;9.746;2024-02-28T14:55:50;19.90;54.00
21348;DHT22;66030;53.582;9.746;2024-02-28T14:58:23;19.90;54.00
21348;DHT22;66030;53.582;9.746;2024-02-28T15:00:51;19.90;53.90
21348;DHT22;66030;53.582;9.746;2024-02-28T15:03:22;19.90;53.90
21348;DHT22;66030;53.582;9.746;2024-02-28T15:05:51;19.90;54.00
21348;DHT22;66030;53.582;9.746;2024-02-28T15:08:19;19.90;54.00
21348;DHT22;66030;53.582;9.746;2024-02-28T15:10:48;20.00;54.00
21348;DHT22;66030;53.582;9.746;2024-02-28T15:13:21;20.00;54.10
21348;DHT22;66030;53.582;9.746;2024-02-28T15:15:55;20.00;54.00
21348;DHT22;66030;53.582;9.746;2024-02-28T15:18:25;20.00;54.00
21348;DHT22;66030;53.582;9.746;2024-02-28T15:20:53;19.90;54.10
21348;DHT22;66030;53.582;9.746;2024-02-28T15:23:25;20.00;54.20
21348;DHT22;66030;53.582;9.746;2024-02-28T15:25:57;20.00;54.10
21348;DHT22;66030;53.582;9.746;2024-02-28T15:28:24;19.90;54.10
21348;DHT22;66030;53.582;9.746;2024-02-28T15:30:53;20.00;54.30
21348;DHT22;66030;53.582;9.746;2024-02-28T15:33:22;20.00;54.40
21348;DHT22;66030;53.582;9.746;2024-02-28T15:35:51;19.90;54.50
21348;DHT22;66030;53.582;9.746;2024-02-28T15:38:19;20.00;54.80